This is the latest recevied weather packets stored in our database for station/object PY1LEO-13. If no packets are shown the sender has not sent any weather packets the latest 10 day(s).
| Time | Temp. | Humidity | Pressure | Rain* | Wind** | Luminosity | Snow |
|---|---|---|---|---|---|---|---|
| 1778011565 | 28.33° C | 58% | 1019.7 hPa | - | - | - | - |
| 1778011265 | 28.33° C | 57% | 1019.7 hPa | - | - | - | - |
| 1778010965 | 28.89° C | 56% | 1019.6 hPa | - | - | - | - |
| 1778010665 | 28.33° C | 56% | 1019.6 hPa | - | - | - | - |
| 1778010366 | 28.33° C | 56% | 1019.6 hPa | - | - | - | - |
| 1778010065 | 28.89° C | 54% | 1019.5 hPa | - | - | - | - |
| 1778009765 | 30° C | 53% | 1019.5 hPa | - | - | - | - |
| 1778009465 | 29.44° C | 54% | 1019.5 hPa | - | - | - | - |
| 1778009165 | 28.89° C | 55% | 1019.5 hPa | - | - | - | - |
| 1778008865 | 29.44° C | 54% | 1019.4 hPa | - | - | - | - |
| 1778008566 | 30° C | 51% | 1019.4 hPa | - | - | - | - |
| 1778008265 | 30° C | 51% | 1019.3 hPa | - | - | - | - |
| 1778007965 | 30° C | 51% | 1019.3 hPa | - | - | - | - |
| 1778007665 | 30° C | 50% | 1019.3 hPa | - | - | - | - |
| 1778007365 | 30° C | 50% | 1019.2 hPa | - | - | - | - |
| 1778007065 | 30° C | 48% | 1019.2 hPa | - | - | - | - |
| 1778006766 | 30° C | 48% | 1019.2 hPa | - | - | - | - |
| 1778006465 | 30.56° C | 48% | 1019.2 hPa | - | - | - | - |
| 1778006165 | 30° C | 47% | 1019.2 hPa | - | - | - | - |
| 1778005865 | 29.44° C | 50% | 1019.2 hPa | - | - | - | - |
| 1778005565 | 30.56° C | 49% | 1019.2 hPa | - | - | - | - |
| 1778005265 | 29.44° C | 50% | 1019.2 hPa | - | - | - | - |
| 1778004966 | 30° C | 49% | 1019.2 hPa | - | - | - | - |
| 1778004665 | 29.44° C | 51% | 1019.2 hPa | - | - | - | - |
| 1778004365 | 30.56° C | 49% | 1019.1 hPa | - | - | - | - |
* Rain since midnight (hover to see other rain measurements)
** Current wind speed in m/s (hover to see current wind gust speed)